sensor_id;sensor_type;location;lat;lon;timestamp;P1;durP1;ratioP1;P2;durP2;ratioP2
45338;SDS011;31071;51.478;5.710;2023-06-10T06:07:23;16.17;;;14.07;;
45338;SDS011;31071;51.478;5.710;2023-06-10T06:09:48;18.13;;;13.95;;
45338;SDS011;31071;51.478;5.710;2023-06-10T06:14:48;17.10;;;14.02;;
45338;SDS011;31071;51.478;5.710;2023-06-10T06:17:19;20.08;;;13.05;;
45338;SDS011;31071;51.478;5.710;2023-06-10T06:20:09;15.93;;;12.60;;
45338;SDS011;31071;51.478;5.710;2023-06-10T06:23:11;17.05;;;13.55;;
45338;SDS011;31071;51.478;5.710;2023-06-10T06:25:36;16.50;;;13.48;;
45338;SDS011;31071;51.478;5.710;2023-06-10T06:31:42;18.65;;;13.55;;
45338;SDS011;31071;51.478;5.710;2023-06-10T06:37:28;16.75;;;13.35;;
45338;SDS011;31071;51.478;5.710;2023-06-10T06:40:17;17.95;;;13.43;;
45338;SDS011;31071;51.478;5.710;2023-06-10T06:42:45;15.05;;;12.63;;
45338;SDS011;31071;51.478;5.710;2023-06-10T06:45:11;17.27;;;13.60;;
45338;SDS011;31071;51.478;5.710;2023-06-10T06:47:36;18.85;;;13.43;;
45338;SDS011;31071;51.478;5.710;2023-06-10T06:50:02;17.08;;;12.90;;
45338;SDS011;31071;51.478;5.710;2023-06-10T06:52:28;18.13;;;12.52;;
45338;SDS011;31071;51.478;5.710;2023-06-10T06:54:55;15.35;;;12.63;;
45338;SDS011;31071;51.478;5.710;2023-06-10T06:57:20;14.85;;;12.23;;
45338;SDS011;31071;51.478;5.710;2023-06-10T06:59:48;16.40;;;11.40;;
45338;SDS011;31071;51.478;5.710;2023-06-10T07:02:14;17.52;;;11.73;;
45338;SDS011;31071;51.478;5.710;2023-06-10T07:04:42;16.10;;;11.85;;
45338;SDS011;31071;51.478;5.710;2023-06-10T07:07:08;16.95;;;12.00;;
45338;SDS011;31071;51.478;5.710;2023-06-10T07:09:34;15.55;;;11.45;;
45338;SDS011;31071;51.478;5.710;2023-06-10T07:12:02;13.32;;;11.30;;
45338;SDS011;31071;51.478;5.710;2023-06-10T07:14:29;19.95;;;12.07;;
45338;SDS011;31071;51.478;5.710;2023-06-10T07:16:56;15.50;;;11.63;;
45338;SDS011;31071;51.478;5.710;2023-06-10T07:19:21;16.15;;;11.55;;
45338;SDS011;31071;51.478;5.710;2023-06-10T07:21:50;14.15;;;10.85;;
45338;SDS011;31071;51.478;5.710;2023-06-10T07:24:15;17.33;;;11.25;;
45338;SDS011;31071;51.478;5.710;2023-06-10T07:26:41;13.55;;;10.20;;
45338;SDS011;31071;51.478;5.710;2023-06-10T07:29:10;20.85;;;10.15;;
45338;SDS011;31071;51.478;5.710;2023-06-10T07:32:02;13.13;;;9.80;;
45338;SDS011;31071;51.478;5.710;2023-06-10T07:34:28;15.85;;;9.90;;
45338;SDS011;31071;51.478;5.710;2023-06-10T07:36:54;15.63;;;9.70;;
45338;SDS011;31071;51.478;5.710;2023-06-10T07:39:22;10.25;;;9.20;;
45338;SDS011;31071;51.478;5.710;2023-06-10T07:41:53;14.65;;;9.52;;
45338;SDS011;31071;51.478;5.710;2023-06-10T07:44:20;11.65;;;9.27;;
45338;SDS011;31071;51.478;5.710;2023-06-10T07:46:48;13.80;;;9.23;;
45338;SDS011;31071;51.478;5.710;2023-06-10T07:49:15;17.95;;;9.80;;
45338;SDS011;31071;51.478;5.710;2023-06-10T07:51:43;11.45;;;9.57;;
45338;SDS011;31071;51.478;5.710;2023-06-10T07:54:09;11.30;;;9.18;;
45338;SDS011;31071;51.478;5.710;2023-06-10T07:56:37;13.73;;;9.45;;
45338;SDS011;31071;51.478;5.710;2023-06-10T07:59:03;13.00;;;8.85;;
45338;SDS011;31071;51.478;5.710;2023-06-10T08:01:28;14.23;;;9.15;;
45338;SDS011;31071;51.478;5.710;2023-06-10T08:03:55;15.13;;;9.32;;
45338;SDS011;31071;51.478;5.710;2023-06-10T08:06:20;18.38;;;9.93;;
45338;SDS011;31071;51.478;5.710;2023-06-10T08:08:46;11.10;;;8.80;;
45338;SDS011;31071;51.478;5.710;2023-06-10T08:11:12;13.27;;;9.65;;
45338;SDS011;31071;51.478;5.710;2023-06-10T08:13:38;13.95;;;9.15;;
45338;SDS011;31071;51.478;5.710;2023-06-10T08:16:03;11.65;;;9.35;;
45338;SDS011;31071;51.478;5.710;2023-06-10T08:18:29;11.75;;;8.25;;
45338;SDS011;31071;51.478;5.710;2023-06-10T08:20:55;13.25;;;8.73;;
45338;SDS011;31071;51.478;5.710;2023-06-10T08:23:20;10.30;;;8.32;;
45338;SDS011;31071;51.478;5.710;2023-06-10T08:25:46;11.02;;;8.48;;
45338;SDS011;31071;51.478;5.710;2023-06-10T08:28:12;13.32;;;9.15;;
45338;SDS011;31071;51.478;5.710;2023-06-10T08:30:37;12.38;;;8.20;;
45338;SDS011;31071;51.478;5.710;2023-06-10T08:33:03;12.57;;;9.25;;
45338;SDS011;31071;51.478;5.710;2023-06-10T08:35:29;13.20;;;8.05;;
45338;SDS011;31071;51.478;5.710;2023-06-10T08:37:55;15.15;;;8.63;;
45338;SDS011;31071;51.478;5.710;2023-06-10T08:40:20;11.00;;;8.70;;
45338;SDS011;31071;51.478;5.710;2023-06-10T08:42:53;12.95;;;7.90;;
45338;SDS011;31071;51.478;5.710;2023-06-10T08:45:23;10.77;;;8.23;;
45338;SDS011;31071;51.478;5.710;2023-06-10T08:47:52;10.63;;;7.95;;
45338;SDS011;31071;51.478;5.710;2023-06-10T08:50:22;9.10;;;7.75;;
45338;SDS011;31071;51.478;5.710;2023-06-10T08:52:48;12.75;;;8.40;;
45338;SDS011;31071;51.478;5.710;2023-06-10T08:55:19;9.20;;;8.05;;
45338;SDS011;31071;51.478;5.710;2023-06-10T08:57:51;13.23;;;8.00;;
45338;SDS011;31071;51.478;5.710;2023-06-10T09:00:17;10.48;;;7.60;;
45338;SDS011;31071;51.478;5.710;2023-06-10T09:02:43;9.60;;;7.47;;
45338;SDS011;31071;51.478;5.710;2023-06-10T09:05:09;10.52;;;7.88;;
45338;SDS011;31071;51.478;5.710;2023-06-10T09:07:35;11.05;;;8.13;;
45338;SDS011;31071;51.478;5.710;2023-06-10T09:10:02;12.13;;;8.20;;
45338;SDS011;31071;51.478;5.710;2023-06-10T09:12:29;10.07;;;8.07;;
45338;SDS011;31071;51.478;5.710;2023-06-10T09:14:55;10.13;;;8.15;;
45338;SDS011;31071;51.478;5.710;2023-06-10T09:17:21;14.80;;;9.00;;
45338;SDS011;31071;51.478;5.710;2023-06-10T09:19:47;10.60;;;8.63;;
45338;SDS011;31071;51.478;5.710;2023-06-10T09:22:14;11.98;;;8.25;;
45338;SDS011;31071;51.478;5.710;2023-06-10T09:24:39;12.10;;;8.82;;
45338;SDS011;31071;51.478;5.710;2023-06-10T09:27:07;9.27;;;8.15;;
45338;SDS011;31071;51.478;5.710;2023-06-10T09:29:53;9.82;;;8.45;;
45338;SDS011;31071;51.478;5.710;2023-06-10T09:32:20;11.82;;;8.48;;
45338;SDS011;31071;51.478;5.710;2023-06-10T09:34:46;11.30;;;8.35;;
45338;SDS011;31071;51.478;5.710;2023-06-10T09:37:13;8.80;;;7.93;;
45338;SDS011;31071;51.478;5.710;2023-06-10T09:40:04;9.57;;;8.57;;
45338;SDS011;31071;51.478;5.710;2023-06-10T09:42:34;11.48;;;8.70;;
45338;SDS011;31071;51.478;5.710;2023-06-10T09:45:05;10.23;;;8.38;;
45338;SDS011;31071;51.478;5.710;2023-06-10T09:47:32;12.35;;;8.88;;
45338;SDS011;31071;51.478;5.710;2023-06-10T09:49:57;11.13;;;8.32;;
45338;SDS011;31071;51.478;5.710;2023-06-10T09:52:24;12.73;;;8.20;;
45338;SDS011;31071;51.478;5.710;2023-06-10T09:54:51;13.27;;;8.45;;
45338;SDS011;31071;51.478;5.710;2023-06-10T09:57:18;12.98;;;8.95;;
45338;SDS011;31071;51.478;5.710;2023-06-10T09:59:47;11.60;;;8.35;;
45338;SDS011;31071;51.478;5.710;2023-06-10T10:02:16;14.00;;;8.80;;
45338;SDS011;31071;51.478;5.710;2023-06-10T10:04:42;11.43;;;8.45;;
45338;SDS011;31071;51.478;5.710;2023-06-10T10:07:09;11.02;;;8.48;;
45338;SDS011;31071;51.478;5.710;2023-06-10T10:09:36;13.35;;;8.85;;
45338;SDS011;31071;51.478;5.710;2023-06-10T10:12:08;11.00;;;8.02;;
45338;SDS011;31071;51.478;5.710;2023-06-10T10:14:39;9.45;;;8.55;;
45338;SDS011;31071;51.478;5.710;2023-06-10T10:17:11;10.77;;;9.00;;
45338;SDS011;31071;51.478;5.710;2023-06-10T10:19:48;14.55;;;9.48;;
45338;SDS011;31071;51.478;5.710;2023-06-10T10:22:26;9.80;;;8.23;;
45338;SDS011;31071;51.478;5.710;2023-06-10T10:24:59;10.88;;;8.90;;
45338;SDS011;31071;51.478;5.710;2023-06-10T10:27:28;10.07;;;8.93;;
45338;SDS011;31071;51.478;5.710;2023-06-10T10:29:58;9.38;;;8.32;;
45338;SDS011;31071;51.478;5.710;2023-06-10T10:35:21;9.77;;;8.25;;
45338;SDS011;31071;51.478;5.710;2023-06-10T10:37:52;12.30;;;8.73;;
45338;SDS011;31071;51.478;5.710;2023-06-10T10:40:21;12.18;;;9.18;;
45338;SDS011;31071;51.478;5.710;2023-06-10T10:42:47;12.05;;;8.95;;
45338;SDS011;31071;51.478;5.710;2023-06-10T10:45:15;11.13;;;8.40;;
45338;SDS011;31071;51.478;5.710;2023-06-10T10:47:41;14.60;;;8.90;;
45338;SDS011;31071;51.478;5.710;2023-06-10T10:50:16;10.07;;;8.95;;
45338;SDS011;31071;51.478;5.710;2023-06-10T10:52:53;11.40;;;9.27;;
45338;SDS011;31071;51.478;5.710;2023-06-10T10:55:21;11.35;;;8.65;;
45338;SDS011;31071;51.478;5.710;2023-06-10T10:58:04;11.90;;;8.75;;
45338;SDS011;31071;51.478;5.710;2023-06-10T11:00:37;9.75;;;8.85;;
45338;SDS011;31071;51.478;5.710;2023-06-10T11:03:12;11.57;;;8.90;;
45338;SDS011;31071;51.478;5.710;2023-06-10T11:05:42;11.00;;;8.60;;
45338;SDS011;31071;51.478;5.710;2023-06-10T11:08:13;9.48;;;8.57;;
45338;SDS011;31071;51.478;5.710;2023-06-10T11:10:39;11.93;;;8.93;;
45338;SDS011;31071;51.478;5.710;2023-06-10T11:13:07;10.18;;;8.63;;
45338;SDS011;31071;51.478;5.710;2023-06-10T11:15:44;10.00;;;8.65;;
45338;SDS011;31071;51.478;5.710;2023-06-10T11:18:24;10.10;;;8.10;;
45338;SDS011;31071;51.478;5.710;2023-06-10T11:20:51;9.15;;;8.25;;
45338;SDS011;31071;51.478;5.710;2023-06-10T11:28:40;10.38;;;9.43;;
45338;SDS011;31071;51.478;5.710;2023-06-10T11:31:07;12.02;;;8.88;;
45338;SDS011;31071;51.478;5.710;2023-06-10T11:33:43;11.43;;;8.75;;
45338;SDS011;31071;51.478;5.710;2023-06-10T11:36:09;9.65;;;8.73;;
45338;SDS011;31071;51.478;5.710;2023-06-10T11:38:35;10.30;;;9.40;;
45338;SDS011;31071;51.478;5.710;2023-06-10T11:41:01;9.48;;;8.27;;
45338;SDS011;31071;51.478;5.710;2023-06-10T11:43:27;10.43;;;9.10;;
45338;SDS011;31071;51.478;5.710;2023-06-10T11:45:56;10.52;;;9.18;;
45338;SDS011;31071;51.478;5.710;2023-06-10T11:48:21;10.38;;;9.30;;
45338;SDS011;31071;51.478;5.710;2023-06-10T11:50:52;9.75;;;8.07;;
45338;SDS011;31071;51.478;5.710;2023-06-10T11:53:18;9.00;;;8.10;;
45338;SDS011;31071;51.478;5.710;2023-06-10T11:55:44;9.10;;;8.20;;
45338;SDS011;31071;51.478;5.710;2023-06-10T11:58:14;16.58;;;8.40;;
45338;SDS011;31071;51.478;5.710;2023-06-10T12:00:47;12.57;;;8.60;;
45338;SDS011;31071;51.478;5.710;2023-06-10T12:03:15;11.43;;;8.90;;
45338;SDS011;31071;51.478;5.710;2023-06-10T12:05:55;10.27;;;9.23;;
45338;SDS011;31071;51.478;5.710;2023-06-10T12:08:22;10.23;;;8.65;;
45338;SDS011;31071;51.478;5.710;2023-06-10T12:10:48;9.55;;;8.43;;
45338;SDS011;31071;51.478;5.710;2023-06-10T12:13:31;9.82;;;8.50;;
45338;SDS011;31071;51.478;5.710;2023-06-10T12:16:05;8.82;;;7.97;;
45338;SDS011;31071;51.478;5.710;2023-06-10T12:18:32;9.25;;;8.02;;
45338;SDS011;31071;51.478;5.710;2023-06-10T12:20:58;9.25;;;8.35;;
45338;SDS011;31071;51.478;5.710;2023-06-10T12:23:24;10.82;;;8.80;;
45338;SDS011;31071;51.478;5.710;2023-06-10T12:25:52;9.07;;;8.38;;
45338;SDS011;31071;51.478;5.710;2023-06-10T12:28:22;8.95;;;8.13;;
45338;SDS011;31071;51.478;5.710;2023-06-10T12:31:07;9.40;;;8.38;;
45338;SDS011;31071;51.478;5.710;2023-06-10T12:33:33;9.13;;;8.32;;
45338;SDS011;31071;51.478;5.710;2023-06-10T12:36:01;11.02;;;9.25;;
45338;SDS011;31071;51.478;5.710;2023-06-10T12:38:27;9.82;;;8.05;;
45338;SDS011;31071;51.478;5.710;2023-06-10T12:40:53;9.85;;;8.60;;
45338;SDS011;31071;51.478;5.710;2023-06-10T12:43:24;8.90;;;8.05;;
45338;SDS011;31071;51.478;5.710;2023-06-10T12:45:50;9.77;;;8.77;;
45338;SDS011;31071;51.478;5.710;2023-06-10T12:48:21;12.63;;;8.70;;
45338;SDS011;31071;51.478;5.710;2023-06-10T12:50:51;10.25;;;8.60;;
45338;SDS011;31071;51.478;5.710;2023-06-10T12:53:21;9.65;;;8.23;;
45338;SDS011;31071;51.478;5.710;2023-06-10T12:55:48;12.70;;;8.13;;
45338;SDS011;31071;51.478;5.710;2023-06-10T12:58:14;12.88;;;8.95;;
45338;SDS011;31071;51.478;5.710;2023-06-10T13:00:40;9.68;;;8.07;;
45338;SDS011;31071;51.478;5.710;2023-06-10T13:03:07;9.52;;;8.48;;
45338;SDS011;31071;51.478;5.710;2023-06-10T13:05:37;12.77;;;8.23;;
45338;SDS011;31071;51.478;5.710;2023-06-10T13:08:04;9.18;;;8.38;;
45338;SDS011;31071;51.478;5.710;2023-06-10T13:10:31;8.95;;;8.20;;
45338;SDS011;31071;51.478;5.710;2023-06-10T13:12:57;9.27;;;8.48;;
45338;SDS011;31071;51.478;5.710;2023-06-10T13:15:22;10.63;;;8.70;;
45338;SDS011;31071;51.478;5.710;2023-06-10T13:17:48;11.20;;;8.50;;
45338;SDS011;31071;51.478;5.710;2023-06-10T13:20:14;9.05;;;8.25;;
45338;SDS011;31071;51.478;5.710;2023-06-10T13:22:41;8.95;;;8.05;;
45338;SDS011;31071;51.478;5.710;2023-06-10T13:25:07;10.73;;;8.15;;
45338;SDS011;31071;51.478;5.710;2023-06-10T13:27:33;11.40;;;8.95;;
45338;SDS011;31071;51.478;5.710;2023-06-10T13:29:59;9.60;;;8.80;;
45338;SDS011;31071;51.478;5.710;2023-06-10T13:32:25;8.82;;;8.13;;
45338;SDS011;31071;51.478;5.710;2023-06-10T13:34:50;9.75;;;8.75;;
45338;SDS011;31071;51.478;5.710;2023-06-10T13:37:18;9.18;;;8.45;;
45338;SDS011;31071;51.478;5.710;2023-06-10T13:39:44;8.98;;;7.40;;
45338;SDS011;31071;51.478;5.710;2023-06-10T13:42:13;10.05;;;8.73;;
45338;SDS011;31071;51.478;5.710;2023-06-10T13:44:39;8.45;;;7.65;;
45338;SDS011;31071;51.478;5.710;2023-06-10T13:47:04;10.35;;;8.30;;
45338;SDS011;31071;51.478;5.710;2023-06-10T13:49:31;13.52;;;8.27;;
45338;SDS011;31071;51.478;5.710;2023-06-10T13:51:57;9.85;;;8.57;;
45338;SDS011;31071;51.478;5.710;2023-06-10T13:54:22;9.40;;;8.43;;
45338;SDS011;31071;51.478;5.710;2023-06-10T13:56:48;9.32;;;8.38;;
45338;SDS011;31071;51.478;5.710;2023-06-10T13:59:13;11.10;;;8.02;;
45338;SDS011;31071;51.478;5.710;2023-06-10T14:01:39;9.25;;;8.10;;
45338;SDS011;31071;51.478;5.710;2023-06-10T14:04:05;11.43;;;9.02;;
45338;SDS011;31071;51.478;5.710;2023-06-10T14:06:32;9.35;;;8.40;;
45338;SDS011;31071;51.478;5.710;2023-06-10T14:08:58;11.27;;;8.95;;
45338;SDS011;31071;51.478;5.710;2023-06-10T14:11:24;9.32;;;8.43;;
45338;SDS011;31071;51.478;5.710;2023-06-10T14:13:50;10.50;;;9.48;;
45338;SDS011;31071;51.478;5.710;2023-06-10T14:16:16;9.77;;;8.88;;
45338;SDS011;31071;51.478;5.710;2023-06-10T14:18:41;9.82;;;8.93;;
45338;SDS011;31071;51.478;5.710;2023-06-10T14:21:07;9.77;;;8.90;;
45338;SDS011;31071;51.478;5.710;2023-06-10T14:23:32;10.30;;;8.68;;
45338;SDS011;31071;51.478;5.710;2023-06-10T14:25:58;10.98;;;8.88;;
45338;SDS011;31071;51.478;5.710;2023-06-10T14:28:24;11.93;;;8.68;;
45338;SDS011;31071;51.478;5.710;2023-06-10T14:30:51;9.57;;;8.68;;
45338;SDS011;31071;51.478;5.710;2023-06-10T14:33:17;9.63;;;8.73;;
45338;SDS011;31071;51.478;5.710;2023-06-10T14:35:43;11.68;;;9.32;;
45338;SDS011;31071;51.478;5.710;2023-06-10T14:38:08;10.80;;;9.02;;
45338;SDS011;31071;51.478;5.710;2023-06-10T14:40:34;10.55;;;9.50;;
45338;SDS011;31071;51.478;5.710;2023-06-10T14:43:00;10.45;;;8.77;;
45338;SDS011;31071;51.478;5.710;2023-06-10T14:45:28;10.25;;;9.20;;
45338;SDS011;31071;51.478;5.710;2023-06-10T14:47:55;9.27;;;8.40;;
45338;SDS011;31071;51.478;5.710;2023-06-10T14:50:21;10.43;;;9.10;;
45338;SDS011;31071;51.478;5.710;2023-06-10T14:52:47;9.43;;;8.50;;
45338;SDS011;31071;51.478;5.710;2023-06-10T14:55:12;9.38;;;8.45;;
45338;SDS011;31071;51.478;5.710;2023-06-10T14:57:39;10.90;;;9.20;;
45338;SDS011;31071;51.478;5.710;2023-06-10T15:00:04;14.30;;;9.27;;
45338;SDS011;31071;51.478;5.710;2023-06-10T15:02:31;11.23;;;9.80;;
45338;SDS011;31071;51.478;5.710;2023-06-10T15:04:57;10.23;;;9.20;;
45338;SDS011;31071;51.478;5.710;2023-06-10T15:07:22;9.85;;;8.95;;
45338;SDS011;31071;51.478;5.710;2023-06-10T15:09:48;10.77;;;9.48;;
45338;SDS011;31071;51.478;5.710;2023-06-10T15:12:13;10.70;;;9.55;;
45338;SDS011;31071;51.478;5.710;2023-06-10T15:14:39;14.95;;;10.23;;
45338;SDS011;31071;51.478;5.710;2023-06-10T15:17:04;10.95;;;9.05;;
45338;SDS011;31071;51.478;5.710;2023-06-10T15:19:30;9.85;;;8.73;;
45338;SDS011;31071;51.478;5.710;2023-06-10T15:21:56;10.25;;;9.23;;
45338;SDS011;31071;51.478;5.710;2023-06-10T15:24:21;17.20;;;13.80;;
45338;SDS011;31071;51.478;5.710;2023-06-10T15:26:47;32.70;;;23.77;;
45338;SDS011;31071;51.478;5.710;2023-06-10T15:29:12;11.93;;;9.73;;
45338;SDS011;31071;51.478;5.710;2023-06-10T15:31:38;11.65;;;9.68;;
45338;SDS011;31071;51.478;5.710;2023-06-10T15:34:03;10.80;;;9.65;;
45338;SDS011;31071;51.478;5.710;2023-06-10T15:36:29;10.95;;;9.85;;
45338;SDS011;31071;51.478;5.710;2023-06-10T15:39:03;12.85;;;9.13;;
45338;SDS011;31071;51.478;5.710;2023-06-10T15:41:31;11.48;;;9.82;;
45338;SDS011;31071;51.478;5.710;2023-06-10T15:43:57;10.75;;;9.30;;
45338;SDS011;31071;51.478;5.710;2023-06-10T15:46:24;10.80;;;9.60;;
45338;SDS011;31071;51.478;5.710;2023-06-10T15:48:51;10.73;;;8.73;;
45338;SDS011;31071;51.478;5.710;2023-06-10T15:51:18;12.38;;;9.65;;
45338;SDS011;31071;51.478;5.710;2023-06-10T15:53:44;10.52;;;9.48;;
45338;SDS011;31071;51.478;5.710;2023-06-10T15:56:12;10.15;;;9.07;;
45338;SDS011;31071;51.478;5.710;2023-06-10T15:58:38;10.05;;;9.00;;
45338;SDS011;31071;51.478;5.710;2023-06-10T16:01:04;11.35;;;9.85;;
45338;SDS011;31071;51.478;5.710;2023-06-10T16:03:29;11.35;;;10.23;;
45338;SDS011;31071;51.478;5.710;2023-06-10T16:05:55;11.05;;;9.95;;
45338;SDS011;31071;51.478;5.710;2023-06-10T16:08:20;10.57;;;9.48;;
45338;SDS011;31071;51.478;5.710;2023-06-10T16:10:46;11.52;;;9.38;;
45338;SDS011;31071;51.478;5.710;2023-06-10T16:13:13;11.07;;;10.02;;
45338;SDS011;31071;51.478;5.710;2023-06-10T16:15:39;11.40;;;10.25;;
45338;SDS011;31071;51.478;5.710;2023-06-10T16:18:04;10.65;;;9.45;;
45338;SDS011;31071;51.478;5.710;2023-06-10T16:20:30;12.00;;;9.80;;
45338;SDS011;31071;51.478;5.710;2023-06-10T16:23:05;11.27;;;9.73;;
45338;SDS011;31071;51.478;5.710;2023-06-10T16:25:30;11.05;;;9.93;;
45338;SDS011;31071;51.478;5.710;2023-06-10T16:27:58;10.63;;;9.63;;
45338;SDS011;31071;51.478;5.710;2023-06-10T16:30:24;13.52;;;9.38;;
45338;SDS011;31071;51.478;5.710;2023-06-10T16:32:52;21.35;;;12.35;;
45338;SDS011;31071;51.478;5.710;2023-06-10T16:35:18;12.23;;;11.00;;
45338;SDS011;31071;51.478;5.710;2023-06-10T16:37:47;12.30;;;11.18;;
45338;SDS011;31071;51.478;5.710;2023-06-10T16:40:15;11.85;;;10.20;;
45338;SDS011;31071;51.478;5.710;2023-06-10T16:42:53;11.45;;;10.38;;
45338;SDS011;31071;51.478;5.710;2023-06-10T16:45:18;10.30;;;9.30;;
45338;SDS011;31071;51.478;5.710;2023-06-10T16:47:44;11.55;;;9.65;;
45338;SDS011;31071;51.478;5.710;2023-06-10T16:50:12;11.15;;;10.02;;
45338;SDS011;31071;51.478;5.710;2023-06-10T16:52:53;11.85;;;9.77;;
45338;SDS011;31071;51.478;5.710;2023-06-10T16:55:27;10.93;;;9.88;;
45338;SDS011;31071;51.478;5.710;2023-06-10T16:57:53;10.63;;;9.50;;
45338;SDS011;31071;51.478;5.710;2023-06-10T17:02:59;15.20;;;13.02;;
45338;SDS011;31071;51.478;5.710;2023-06-10T17:05:33;15.80;;;12.15;;
45338;SDS011;31071;51.478;5.710;2023-06-10T17:08:04;14.57;;;10.32;;
45338;SDS011;31071;51.478;5.710;2023-06-10T17:10:31;17.45;;;14.55;;
45338;SDS011;31071;51.478;5.710;2023-06-10T17:13:01;13.73;;;11.70;;
45338;SDS011;31071;51.478;5.710;2023-06-10T17:15:29;11.55;;;9.88;;
45338;SDS011;31071;51.478;5.710;2023-06-10T17:17:55;12.02;;;10.55;;
45338;SDS011;31071;51.478;5.710;2023-06-10T17:20:24;11.20;;;10.00;;
45338;SDS011;31071;51.478;5.710;2023-06-10T17:22:49;10.98;;;9.23;;
45338;SDS011;31071;51.478;5.710;2023-06-10T17:25:15;12.40;;;9.80;;
45338;SDS011;31071;51.478;5.710;2023-06-10T17:27:46;9.82;;;8.88;;
45338;SDS011;31071;51.478;5.710;2023-06-10T17:30:13;10.23;;;9.23;;
45338;SDS011;31071;51.478;5.710;2023-06-10T17:32:39;12.48;;;9.13;;
45338;SDS011;31071;51.478;5.710;2023-06-10T17:35:05;11.55;;;10.00;;
45338;SDS011;31071;51.478;5.710;2023-06-10T17:37:32;17.10;;;12.80;;
45338;SDS011;31071;51.478;5.710;2023-06-10T17:39:57;12.50;;;8.82;;
45338;SDS011;31071;51.478;5.710;2023-06-10T17:42:23;13.32;;;10.70;;
45338;SDS011;31071;51.478;5.710;2023-06-10T17:44:49;13.70;;;11.05;;
45338;SDS011;31071;51.478;5.710;2023-06-10T17:47:14;13.98;;;12.40;;
45338;SDS011;31071;51.478;5.710;2023-06-10T17:49:40;13.07;;;9.93;;
45338;SDS011;31071;51.478;5.710;2023-06-10T17:52:12;12.20;;;9.85;;
45338;SDS011;31071;51.478;5.710;2023-06-10T17:54:37;18.35;;;13.88;;
45338;SDS011;31071;51.478;5.710;2023-06-10T17:57:03;25.10;;;18.60;;
45338;SDS011;31071;51.478;5.710;2023-06-10T17:59:41;23.33;;;14.95;;
45338;SDS011;31071;51.478;5.710;2023-06-10T18:02:07;16.98;;;12.35;;
45338;SDS011;31071;51.478;5.710;2023-06-10T18:04:33;11.50;;;9.55;;
45338;SDS011;31071;51.478;5.710;2023-06-10T18:06:59;10.38;;;8.98;;
45338;SDS011;31071;51.478;5.710;2023-06-10T18:09:25;19.20;;;13.80;;
45338;SDS011;31071;51.478;5.710;2023-06-10T18:14:22;10.70;;;9.23;;
45338;SDS011;31071;51.478;5.710;2023-06-10T18:16:48;19.00;;;12.35;;
45338;SDS011;31071;51.478;5.710;2023-06-10T18:19:13;13.73;;;10.07;;
45338;SDS011;31071;51.478;5.710;2023-06-10T18:21:40;10.63;;;8.80;;
45338;SDS011;31071;51.478;5.710;2023-06-10T18:24:06;13.18;;;9.90;;
45338;SDS011;31071;51.478;5.710;2023-06-10T18:26:32;9.70;;;8.82;;
45338;SDS011;31071;51.478;5.710;2023-06-10T18:28:58;13.23;;;8.93;;
45338;SDS011;31071;51.478;5.710;2023-06-10T18:31:23;13.45;;;8.88;;
45338;SDS011;31071;51.478;5.710;2023-06-10T18:33:49;11.55;;;8.10;;
45338;SDS011;31071;51.478;5.710;2023-06-10T18:36:15;10.43;;;8.75;;
45338;SDS011;31071;51.478;5.710;2023-06-10T18:38:40;9.43;;;8.35;;
45338;SDS011;31071;51.478;5.710;2023-06-10T18:41:06;15.10;;;8.73;;
45338;SDS011;31071;51.478;5.710;2023-06-10T18:43:31;9.32;;;8.38;;
45338;SDS011;31071;51.478;5.710;2023-06-10T18:45:57;11.95;;;9.15;;
45338;SDS011;31071;51.478;5.710;2023-06-10T18:48:24;11.25;;;8.25;;
45338;SDS011;31071;51.478;5.710;2023-06-10T18:50:49;10.57;;;8.27;;
45338;SDS011;31071;51.478;5.710;2023-06-10T18:53:18;11.25;;;8.75;;
45338;SDS011;31071;51.478;5.710;2023-06-10T18:55:46;10.88;;;8.45;;
45338;SDS011;31071;51.478;5.710;2023-06-10T18:58:14;12.45;;;8.40;;
45338;SDS011;31071;51.478;5.710;2023-06-10T19:00:39;9.65;;;8.38;;
45338;SDS011;31071;51.478;5.710;2023-06-10T19:03:34;9.07;;;8.05;;
45338;SDS011;31071;51.478;5.710;2023-06-10T19:06:23;9.25;;;7.63;;
45338;SDS011;31071;51.478;5.710;2023-06-10T19:09:05;10.60;;;8.30;;
45338;SDS011;31071;51.478;5.710;2023-06-10T19:11:33;9.18;;;7.97;;
45338;SDS011;31071;51.478;5.710;2023-06-10T19:14:01;11.48;;;8.15;;
45338;SDS011;31071;51.478;5.710;2023-06-10T19:16:27;9.95;;;7.72;;
45338;SDS011;31071;51.478;5.710;2023-06-10T19:19:02;9.45;;;8.55;;
45338;SDS011;31071;51.478;5.710;2023-06-10T19:21:31;13.90;;;8.82;;
45338;SDS011;31071;51.478;5.710;2023-06-10T19:23:57;10.07;;;8.57;;
45338;SDS011;31071;51.478;5.710;2023-06-10T19:26:22;12.98;;;8.90;;
45338;SDS011;31071;51.478;5.710;2023-06-10T19:28:48;12.50;;;8.50;;
45338;SDS011;31071;51.478;5.710;2023-06-10T19:31:16;17.42;;;8.40;;
45338;SDS011;31071;51.478;5.710;2023-06-10T19:34:02;11.30;;;8.93;;
45338;SDS011;31071;51.478;5.710;2023-06-10T19:36:35;12.63;;;9.52;;
45338;SDS011;31071;51.478;5.710;2023-06-10T19:39:06;9.95;;;8.55;;
45338;SDS011;31071;51.478;5.710;2023-06-10T19:41:32;12.43;;;8.98;;
45338;SDS011;31071;51.478;5.710;2023-06-10T19:44:00;12.07;;;8.85;;
45338;SDS011;31071;51.478;5.710;2023-06-10T19:46:25;12.57;;;9.23;;
45338;SDS011;31071;51.478;5.710;2023-06-10T21:25:49;10.43;;;8.93;;
45338;SDS011;31071;51.478;5.710;2023-06-10T21:28:14;10.50;;;9.40;;
45338;SDS011;31071;51.478;5.710;2023-06-10T21:30:42;9.90;;;8.90;;
